sensor_id;sensor_type;location;lat;lon;timestamp;temperature;humidity
8593;DHT22;4334;49.982;8.398;2022-09-09T00:02:01;16.20;99.90
8593;DHT22;4334;49.982;8.398;2022-09-09T00:04:31;16.10;99.90
8593;DHT22;4334;49.982;8.398;2022-09-09T00:07:04;16.00;99.90
8593;DHT22;4334;49.982;8.398;2022-09-09T00:09:38;16.00;99.90
8593;DHT22;4334;49.982;8.398;2022-09-09T00:12:11;15.90;99.90
8593;DHT22;4334;49.982;8.398;2022-09-09T00:14:45;15.80;99.90
8593;DHT22;4334;49.982;8.398;2022-09-09T00:17:22;15.80;99.90
8593;DHT22;4334;49.982;8.398;2022-09-09T00:19:56;15.70;99.90
8593;DHT22;4334;49.982;8.398;2022-09-09T00:22:28;15.70;99.90
8593;DHT22;4334;49.982;8.398;2022-09-09T00:25:02;15.60;99.90
8593;DHT22;4334;49.982;8.398;2022-09-09T00:27:38;15.50;99.90
8593;DHT22;4334;49.982;8.398;2022-09-09T00:30:15;15.40;99.90
8593;DHT22;4334;49.982;8.398;2022-09-09T00:32:46;15.30;99.90
8593;DHT22;4334;49.982;8.398;2022-09-09T00:35:18;15.30;99.90
8593;DHT22;4334;49.982;8.398;2022-09-09T00:37:50;15.30;99.90
8593;DHT22;4334;49.982;8.398;2022-09-09T00:40:23;15.30;99.90
8593;DHT22;4334;49.982;8.398;2022-09-09T00:42:58;15.30;99.90
8593;DHT22;4334;49.982;8.398;2022-09-09T00:45:42;15.30;99.90
8593;DHT22;4334;49.982;8.398;2022-09-09T00:50:45;15.30;99.90
8593;DHT22;4334;49.982;8.398;2022-09-09T00:53:24;15.30;99.90
8593;DHT22;4334;49.982;8.398;2022-09-09T00:56:00;15.30;99.90
8593;DHT22;4334;49.982;8.398;2022-09-09T00:58:30;15.30;99.90
8593;DHT22;4334;49.982;8.398;2022-09-09T01:01:02;15.20;99.90
8593;DHT22;4334;49.982;8.398;2022-09-09T01:03:36;15.30;99.90
8593;DHT22;4334;49.982;8.398;2022-09-09T01:06:14;15.30;99.90
8593;DHT22;4334;49.982;8.398;2022-09-09T01:09:14;15.30;99.90
8593;DHT22;4334;49.982;8.398;2022-09-09T01:11:51;15.20;99.90
8593;DHT22;4334;49.982;8.398;2022-09-09T01:17:00;15.30;99.90
8593;DHT22;4334;49.982;8.398;2022-09-09T01:19:40;15.30;99.90
8593;DHT22;4334;49.982;8.398;2022-09-09T01:22:18;15.30;99.90
8593;DHT22;4334;49.982;8.398;2022-09-09T01:25:03;15.30;99.90
8593;DHT22;4334;49.982;8.398;2022-09-09T01:30:07;15.30;99.90
8593;DHT22;4334;49.982;8.398;2022-09-09T01:32:41;15.40;99.90
8593;DHT22;4334;49.982;8.398;2022-09-09T01:35:12;15.30;99.90
8593;DHT22;4334;49.982;8.398;2022-09-09T01:37:40;15.20;99.90
8593;DHT22;4334;49.982;8.398;2022-09-09T01:40:07;15.20;99.90
8593;DHT22;4334;49.982;8.398;2022-09-09T01:45:04;15.20;99.90
8593;DHT22;4334;49.982;8.398;2022-09-09T01:47:31;15.10;99.90
8593;DHT22;4334;49.982;8.398;2022-09-09T01:49:58;15.10;99.90
8593;DHT22;4334;49.982;8.398;2022-09-09T01:52:25;15.00;99.90
8593;DHT22;4334;49.982;8.398;2022-09-09T01:57:23;15.00;99.90
8593;DHT22;4334;49.982;8.398;2022-09-09T02:00:11;14.90;99.90
8593;DHT22;4334;49.982;8.398;2022-09-09T02:02:44;15.00;99.90
8593;DHT22;4334;49.982;8.398;2022-09-09T02:05:24;14.90;99.90
8593;DHT22;4334;49.982;8.398;2022-09-09T02:07:59;14.80;99.90
8593;DHT22;4334;49.982;8.398;2022-09-09T02:13:09;14.90;99.90
8593;DHT22;4334;49.982;8.398;2022-09-09T02:15:42;14.90;99.90
8593;DHT22;4334;49.982;8.398;2022-09-09T02:20:39;15.10;99.90
8593;DHT22;4334;49.982;8.398;2022-09-09T02:23:07;15.00;99.90
8593;DHT22;4334;49.982;8.398;2022-09-09T02:25:36;15.00;99.90
8593;DHT22;4334;49.982;8.398;2022-09-09T02:28:05;15.10;99.90
8593;DHT22;4334;49.982;8.398;2022-09-09T02:33:04;15.10;99.90
8593;DHT22;4334;49.982;8.398;2022-09-09T02:35:34;15.10;99.90
8593;DHT22;4334;49.982;8.398;2022-09-09T02:38:05;15.10;99.90
8593;DHT22;4334;49.982;8.398;2022-09-09T02:40:33;15.20;99.90
8593;DHT22;4334;49.982;8.398;2022-09-09T02:43:00;15.10;99.90
8593;DHT22;4334;49.982;8.398;2022-09-09T02:45:32;15.10;99.90
8593;DHT22;4334;49.982;8.398;2022-09-09T02:48:06;15.10;99.90
8593;DHT22;4334;49.982;8.398;2022-09-09T02:50:39;15.10;99.90
8593;DHT22;4334;49.982;8.398;2022-09-09T02:53:12;15.00;99.90
8593;DHT22;4334;49.982;8.398;2022-09-09T02:55:47;15.00;99.90
8593;DHT22;4334;49.982;8.398;2022-09-09T02:58:15;15.00;99.90
8593;DHT22;4334;49.982;8.398;2022-09-09T03:00:44;15.00;99.90
8593;DHT22;4334;49.982;8.398;2022-09-09T03:03:13;14.90;99.90
8593;DHT22;4334;49.982;8.398;2022-09-09T03:05:45;14.90;99.90
8593;DHT22;4334;49.982;8.398;2022-09-09T03:08:21;14.90;99.90
8593;DHT22;4334;49.982;8.398;2022-09-09T03:10:47;14.90;99.90
8593;DHT22;4334;49.982;8.398;2022-09-09T03:13:14;14.80;99.90
8593;DHT22;4334;49.982;8.398;2022-09-09T03:15:44;14.80;99.90
8593;DHT22;4334;49.982;8.398;2022-09-09T03:18:14;14.70;99.90
8593;DHT22;4334;49.982;8.398;2022-09-09T03:20:42;14.70;99.90
8593;DHT22;4334;49.982;8.398;2022-09-09T03:23:08;14.70;99.90
8593;DHT22;4334;49.982;8.398;2022-09-09T03:28:02;14.70;99.90
8593;DHT22;4334;49.982;8.398;2022-09-09T03:30:29;14.80;99.90
8593;DHT22;4334;49.982;8.398;2022-09-09T03:35:24;14.90;99.90
8593;DHT22;4334;49.982;8.398;2022-09-09T03:40:18;15.00;99.90
8593;DHT22;4334;49.982;8.398;2022-09-09T03:42:45;15.10;99.90
8593;DHT22;4334;49.982;8.398;2022-09-09T03:45:13;15.10;99.90
8593;DHT22;4334;49.982;8.398;2022-09-09T03:50:08;15.00;99.90
8593;DHT22;4334;49.982;8.398;2022-09-09T03:52:38;15.00;99.90
8593;DHT22;4334;49.982;8.398;2022-09-09T03:55:06;15.00;99.90
8593;DHT22;4334;49.982;8.398;2022-09-09T03:57:34;14.90;99.90
8593;DHT22;4334;49.982;8.398;2022-09-09T04:00:02;14.80;99.90
8593;DHT22;4334;49.982;8.398;2022-09-09T04:02:28;14.90;99.90
8593;DHT22;4334;49.982;8.398;2022-09-09T04:04:55;15.00;99.90
8593;DHT22;4334;49.982;8.398;2022-09-09T04:07:22;15.00;99.90
8593;DHT22;4334;49.982;8.398;2022-09-09T04:09:50;14.90;99.90
8593;DHT22;4334;49.982;8.398;2022-09-09T04:12:16;15.00;99.90
8593;DHT22;4334;49.982;8.398;2022-09-09T04:14:43;14.90;99.90
8593;DHT22;4334;49.982;8.398;2022-09-09T04:17:10;15.00;99.90
8593;DHT22;4334;49.982;8.398;2022-09-09T04:19:37;15.00;99.90
8593;DHT22;4334;49.982;8.398;2022-09-09T04:22:03;15.00;99.90
8593;DHT22;4334;49.982;8.398;2022-09-09T04:24:30;15.00;99.90
8593;DHT22;4334;49.982;8.398;2022-09-09T04:26:58;15.10;99.90
8593;DHT22;4334;49.982;8.398;2022-09-09T04:29:25;15.10;99.90
8593;DHT22;4334;49.982;8.398;2022-09-09T04:31:51;15.10;99.90
8593;DHT22;4334;49.982;8.398;2022-09-09T04:39:12;15.00;99.90
8593;DHT22;4334;49.982;8.398;2022-09-09T04:41:39;15.00;99.90
8593;DHT22;4334;49.982;8.398;2022-09-09T04:44:08;15.00;99.90
8593;DHT22;4334;49.982;8.398;2022-09-09T04:46:35;14.90;99.90
8593;DHT22;4334;49.982;8.398;2022-09-09T04:53:56;14.70;99.90
8593;DHT22;4334;49.982;8.398;2022-09-09T04:56:23;14.70;99.90
8593;DHT22;4334;49.982;8.398;2022-09-09T04:58:52;14.60;99.90
8593;DHT22;4334;49.982;8.398;2022-09-09T05:01:22;14.50;99.90
8593;DHT22;4334;49.982;8.398;2022-09-09T05:06:19;14.40;99.90
8593;DHT22;4334;49.982;8.398;2022-09-09T05:08:46;14.30;99.90
8593;DHT22;4334;49.982;8.398;2022-09-09T05:11:18;14.30;99.90
8593;DHT22;4334;49.982;8.398;2022-09-09T05:13:46;14.50;99.90
8593;DHT22;4334;49.982;8.398;2022-09-09T05:16:13;14.70;99.90
8593;DHT22;4334;49.982;8.398;2022-09-09T05:18:42;14.80;99.90
8593;DHT22;4334;49.982;8.398;2022-09-09T05:21:09;15.00;99.90
8593;DHT22;4334;49.982;8.398;2022-09-09T05:26:04;15.30;99.90
8593;DHT22;4334;49.982;8.398;2022-09-09T05:28:33;15.30;99.90
8593;DHT22;4334;49.982;8.398;2022-09-09T05:31:03;15.40;99.90
8593;DHT22;4334;49.982;8.398;2022-09-09T05:33:31;15.40;99.90
8593;DHT22;4334;49.982;8.398;2022-09-09T05:36:01;15.40;99.90
8593;DHT22;4334;49.982;8.398;2022-09-09T05:38:28;15.40;99.90
8593;DHT22;4334;49.982;8.398;2022-09-09T05:40:55;15.60;99.90
8593;DHT22;4334;49.982;8.398;2022-09-09T05:43:23;16.20;99.90
8593;DHT22;4334;49.982;8.398;2022-09-09T05:45:59;16.40;99.90
8593;DHT22;4334;49.982;8.398;2022-09-09T05:48:28;16.40;99.90
8593;DHT22;4334;49.982;8.398;2022-09-09T05:53:23;16.10;99.90
8593;DHT22;4334;49.982;8.398;2022-09-09T05:55:50;16.00;99.90
8593;DHT22;4334;49.982;8.398;2022-09-09T05:58:18;16.30;99.90
8593;DHT22;4334;49.982;8.398;2022-09-09T06:00:44;17.10;99.90
8593;DHT22;4334;49.982;8.398;2022-09-09T06:03:11;17.80;99.90
8593;DHT22;4334;49.982;8.398;2022-09-09T06:10:34;18.60;99.90
8593;DHT22;4334;49.982;8.398;2022-09-09T06:13:01;18.10;99.90
8593;DHT22;4334;49.982;8.398;2022-09-09T06:15:28;17.60;99.90
8593;DHT22;4334;49.982;8.398;2022-09-09T06:17:55;17.30;99.90
8593;DHT22;4334;49.982;8.398;2022-09-09T06:20:22;17.00;99.90
8593;DHT22;4334;49.982;8.398;2022-09-09T06:22:50;16.90;99.90
8593;DHT22;4334;49.982;8.398;2022-09-09T06:25:17;17.00;99.90
8593;DHT22;4334;49.982;8.398;2022-09-09T06:27:49;17.00;99.90
8593;DHT22;4334;49.982;8.398;2022-09-09T06:30:16;17.10;99.90
8593;DHT22;4334;49.982;8.398;2022-09-09T06:32:43;17.30;99.90
8593;DHT22;4334;49.982;8.398;2022-09-09T06:35:10;17.50;99.90
8593;DHT22;4334;49.982;8.398;2022-09-09T06:37:37;18.00;99.90
8593;DHT22;4334;49.982;8.398;2022-09-09T06:40:04;18.90;99.90
8593;DHT22;4334;49.982;8.398;2022-09-09T06:42:31;18.90;99.90
8593;DHT22;4334;49.982;8.398;2022-09-09T06:45:00;18.90;99.90
8593;DHT22;4334;49.982;8.398;2022-09-09T06:47:28;18.60;99.90
8593;DHT22;4334;49.982;8.398;2022-09-09T06:49:55;18.30;99.90
8593;DHT22;4334;49.982;8.398;2022-09-09T06:52:22;17.90;99.90
8593;DHT22;4334;49.982;8.398;2022-09-09T06:57:17;17.70;99.90
8593;DHT22;4334;49.982;8.398;2022-09-09T06:59:43;17.50;99.90
8593;DHT22;4334;49.982;8.398;2022-09-09T07:02:11;17.40;99.90
8593;DHT22;4334;49.982;8.398;2022-09-09T07:07:05;17.60;99.90
8593;DHT22;4334;49.982;8.398;2022-09-09T07:09:33;17.60;99.90
8593;DHT22;4334;49.982;8.398;2022-09-09T07:12:00;17.60;99.90
8593;DHT22;4334;49.982;8.398;2022-09-09T07:14:27;17.80;99.90
8593;DHT22;4334;49.982;8.398;2022-09-09T07:16:53;18.00;99.90
8593;DHT22;4334;49.982;8.398;2022-09-09T07:19:21;18.00;99.90
8593;DHT22;4334;49.982;8.398;2022-09-09T07:21:48;18.00;99.90
8593;DHT22;4334;49.982;8.398;2022-09-09T07:24:15;18.10;99.90
8593;DHT22;4334;49.982;8.398;2022-09-09T07:26:42;19.40;99.90
8593;DHT22;4334;49.982;8.398;2022-09-09T07:29:10;19.60;99.90
8593;DHT22;4334;49.982;8.398;2022-09-09T07:31:39;19.20;99.90
8593;DHT22;4334;49.982;8.398;2022-09-09T07:34:06;18.80;99.90
8593;DHT22;4334;49.982;8.398;2022-09-09T07:36:36;18.80;99.90
8593;DHT22;4334;49.982;8.398;2022-09-09T07:39:06;18.80;99.90
8593;DHT22;4334;49.982;8.398;2022-09-09T07:41:35;19.00;99.90
8593;DHT22;4334;49.982;8.398;2022-09-09T07:44:07;19.00;99.90
8593;DHT22;4334;49.982;8.398;2022-09-09T07:46:37;19.10;99.90
8593;DHT22;4334;49.982;8.398;2022-09-09T07:49:05;19.20;99.90
8593;DHT22;4334;49.982;8.398;2022-09-09T07:51:33;20.00;99.90
8593;DHT22;4334;49.982;8.398;2022-09-09T07:54:03;21.30;99.90
8593;DHT22;4334;49.982;8.398;2022-09-09T07:56:31;21.70;99.90
8593;DHT22;4334;49.982;8.398;2022-09-09T07:58:58;22.30;99.90
8593;DHT22;4334;49.982;8.398;2022-09-09T08:01:28;22.30;99.90
8593;DHT22;4334;49.982;8.398;2022-09-09T08:03:57;21.90;99.90
8593;DHT22;4334;49.982;8.398;2022-09-09T08:06:26;21.50;99.90
8593;DHT22;4334;49.982;8.398;2022-09-09T08:08:53;21.40;99.90
8593;DHT22;4334;49.982;8.398;2022-09-09T08:11:23;21.30;99.90
8593;DHT22;4334;49.982;8.398;2022-09-09T08:13:51;21.40;99.90
8593;DHT22;4334;49.982;8.398;2022-09-09T08:16:21;21.40;99.90
8593;DHT22;4334;49.982;8.398;2022-09-09T08:18:48;21.90;99.90
8593;DHT22;4334;49.982;8.398;2022-09-09T08:21:18;21.80;99.90
8593;DHT22;4334;49.982;8.398;2022-09-09T08:23:47;21.20;99.90
8593;DHT22;4334;49.982;8.398;2022-09-09T08:26:15;20.70;99.90
8593;DHT22;4334;49.982;8.398;2022-09-09T08:28:44;20.30;99.90
8593;DHT22;4334;49.982;8.398;2022-09-09T08:33:39;20.20;99.90
8593;DHT22;4334;49.982;8.398;2022-09-09T08:36:08;20.60;99.90
8593;DHT22;4334;49.982;8.398;2022-09-09T08:38:36;20.70;99.90
8593;DHT22;4334;49.982;8.398;2022-09-09T08:41:41;20.40;99.90
8593;DHT22;4334;49.982;8.398;2022-09-09T08:44:19;20.50;99.90
8593;DHT22;4334;49.982;8.398;2022-09-09T08:46:53;20.80;99.90
8593;DHT22;4334;49.982;8.398;2022-09-09T08:49:39;20.70;99.90
8593;DHT22;4334;49.982;8.398;2022-09-09T08:52:13;20.40;99.90
8593;DHT22;4334;49.982;8.398;2022-09-09T08:54:43;20.40;99.90
8593;DHT22;4334;49.982;8.398;2022-09-09T08:57:16;20.40;99.90
8593;DHT22;4334;49.982;8.398;2022-09-09T08:59:46;20.10;99.90
8593;DHT22;4334;49.982;8.398;2022-09-09T09:02:17;19.50;99.90
8593;DHT22;4334;49.982;8.398;2022-09-09T09:04:56;19.10;99.90
8593;DHT22;4334;49.982;8.398;2022-09-09T09:07:32;18.90;99.90
8593;DHT22;4334;49.982;8.398;2022-09-09T09:17:38;19.10;99.90
8593;DHT22;4334;49.982;8.398;2022-09-09T09:22:39;19.30;99.90
8593;DHT22;4334;49.982;8.398;2022-09-09T09:27:42;18.80;99.90
8593;DHT22;4334;49.982;8.398;2022-09-09T09:30:16;18.90;99.90
8593;DHT22;4334;49.982;8.398;2022-09-09T09:32:50;19.00;99.90
8593;DHT22;4334;49.982;8.398;2022-09-09T09:35:17;19.10;99.90
8593;DHT22;4334;49.982;8.398;2022-09-09T09:37:44;20.30;99.90
8593;DHT22;4334;49.982;8.398;2022-09-09T09:40:14;20.90;99.90
8593;DHT22;4334;49.982;8.398;2022-09-09T09:42:49;21.90;99.90
8593;DHT22;4334;49.982;8.398;2022-09-09T09:45:26;23.20;99.90
8593;DHT22;4334;49.982;8.398;2022-09-09T09:47:58;24.30;99.90
8593;DHT22;4334;49.982;8.398;2022-09-09T09:50:25;24.70;99.90
8593;DHT22;4334;49.982;8.398;2022-09-09T09:52:56;24.70;99.90
8593;DHT22;4334;49.982;8.398;2022-09-09T09:55:24;24.50;99.90
8593;DHT22;4334;49.982;8.398;2022-09-09T09:57:52;24.60;99.90
8593;DHT22;4334;49.982;8.398;2022-09-09T10:00:22;24.20;99.90
8593;DHT22;4334;49.982;8.398;2022-09-09T10:02:50;23.90;99.90
8593;DHT22;4334;49.982;8.398;2022-09-09T10:05:20;23.50;99.90
8593;DHT22;4334;49.982;8.398;2022-09-09T10:07:47;23.10;99.90
8593;DHT22;4334;49.982;8.398;2022-09-09T10:10:37;22.60;99.90
8593;DHT22;4334;49.982;8.398;2022-09-09T10:13:13;23.70;99.90
8593;DHT22;4334;49.982;8.398;2022-09-09T10:15:47;25.00;99.90
8593;DHT22;4334;49.982;8.398;2022-09-09T10:18:30;25.00;99.90
8593;DHT22;4334;49.982;8.398;2022-09-09T10:21:06;24.00;99.90
8593;DHT22;4334;49.982;8.398;2022-09-09T10:23:51;22.90;99.90
8593;DHT22;4334;49.982;8.398;2022-09-09T10:26:32;22.20;99.90
8593;DHT22;4334;49.982;8.398;2022-09-09T10:29:15;22.00;99.90
8593;DHT22;4334;49.982;8.398;2022-09-09T10:31:52;21.60;99.90
8593;DHT22;4334;49.982;8.398;2022-09-09T10:34:41;21.90;99.90
8593;DHT22;4334;49.982;8.398;2022-09-09T10:42:18;22.30;99.90
8593;DHT22;4334;49.982;8.398;2022-09-09T10:45:02;22.00;99.90
8593;DHT22;4334;49.982;8.398;2022-09-09T10:47:49;22.70;99.90
8593;DHT22;4334;49.982;8.398;2022-09-09T10:50:28;23.30;99.90
8593;DHT22;4334;49.982;8.398;2022-09-09T10:53:03;22.90;99.90
8593;DHT22;4334;49.982;8.398;2022-09-09T10:55:38;22.90;99.90
8593;DHT22;4334;49.982;8.398;2022-09-09T10:58:09;22.60;99.90
8593;DHT22;4334;49.982;8.398;2022-09-09T11:03:15;21.70;99.90
8593;DHT22;4334;49.982;8.398;2022-09-09T11:08:18;21.60;99.90
8593;DHT22;4334;49.982;8.398;2022-09-09T11:10:50;22.20;99.90
8593;DHT22;4334;49.982;8.398;2022-09-09T11:18:22;26.10;99.90
8593;DHT22;4334;49.982;8.398;2022-09-09T11:20:56;26.80;99.90
8593;DHT22;4334;49.982;8.398;2022-09-09T11:23:28;25.20;99.90
8593;DHT22;4334;49.982;8.398;2022-09-09T11:26:01;23.70;99.90
8593;DHT22;4334;49.982;8.398;2022-09-09T11:28:41;23.00;99.90
8593;DHT22;4334;49.982;8.398;2022-09-09T11:31:27;22.40;99.90
8593;DHT22;4334;49.982;8.398;2022-09-09T11:34:10;22.00;99.90
8593;DHT22;4334;49.982;8.398;2022-09-09T11:36:56;22.00;99.90
8593;DHT22;4334;49.982;8.398;2022-09-09T11:39:49;22.60;99.90
8593;DHT22;4334;49.982;8.398;2022-09-09T11:44:46;22.40;99.90
8593;DHT22;4334;49.982;8.398;2022-09-09T11:47:20;22.20;99.90
8593;DHT22;4334;49.982;8.398;2022-09-09T11:49:51;21.90;99.90
8593;DHT22;4334;49.982;8.398;2022-09-09T11:54:51;21.60;99.90
8593;DHT22;4334;49.982;8.398;2022-09-09T11:57:25;21.70;99.90
8593;DHT22;4334;49.982;8.398;2022-09-09T12:02:23;22.00;99.90
8593;DHT22;4334;49.982;8.398;2022-09-09T12:04:59;21.70;99.90
8593;DHT22;4334;49.982;8.398;2022-09-09T12:10:20;20.90;99.90
8593;DHT22;4334;49.982;8.398;2022-09-09T12:12:48;20.70;99.90
8593;DHT22;4334;49.982;8.398;2022-09-09T12:15:27;20.70;99.90
8593;DHT22;4334;49.982;8.398;2022-09-09T12:17:55;20.40;99.90
8593;DHT22;4334;49.982;8.398;2022-09-09T12:20:31;20.10;99.90
8593;DHT22;4334;49.982;8.398;2022-09-09T12:23:16;19.90;99.90
8593;DHT22;4334;49.982;8.398;2022-09-09T12:28:39;19.20;99.90
8593;DHT22;4334;49.982;8.398;2022-09-09T12:31:10;18.60;99.90
8593;DHT22;4334;49.982;8.398;2022-09-09T12:33:44;18.60;99.90
8593;DHT22;4334;49.982;8.398;2022-09-09T12:36:16;18.80;99.90
8593;DHT22;4334;49.982;8.398;2022-09-09T12:38:45;19.00;99.90
8593;DHT22;4334;49.982;8.398;2022-09-09T12:41:23;19.00;99.90
8593;DHT22;4334;49.982;8.398;2022-09-09T12:43:50;19.10;99.90
8593;DHT22;4334;49.982;8.398;2022-09-09T12:48:48;18.70;99.90
8593;DHT22;4334;49.982;8.398;2022-09-09T12:53:46;17.90;99.90
8593;DHT22;4334;49.982;8.398;2022-09-09T12:56:19;18.30;99.90
8593;DHT22;4334;49.982;8.398;2022-09-09T12:58:48;18.10;99.90
8593;DHT22;4334;49.982;8.398;2022-09-09T13:01:21;18.00;99.90
8593;DHT22;4334;49.982;8.398;2022-09-09T13:03:48;18.00;99.90
8593;DHT22;4334;49.982;8.398;2022-09-09T13:06:21;18.10;99.90
8593;DHT22;4334;49.982;8.398;2022-09-09T13:08:49;18.20;99.90
8593;DHT22;4334;49.982;8.398;2022-09-09T13:11:19;18.70;99.90
8593;DHT22;4334;49.982;8.398;2022-09-09T13:13:51;19.10;99.90
8593;DHT22;4334;49.982;8.398;2022-09-09T13:16:22;19.40;99.90
8593;DHT22;4334;49.982;8.398;2022-09-09T13:23:50;21.60;99.90
8593;DHT22;4334;49.982;8.398;2022-09-09T13:26:22;21.90;99.90
8593;DHT22;4334;49.982;8.398;2022-09-09T13:28:50;22.10;99.90
8593;DHT22;4334;49.982;8.398;2022-09-09T13:31:24;23.10;99.90
8593;DHT22;4334;49.982;8.398;2022-09-09T13:33:54;23.40;99.90
8593;DHT22;4334;49.982;8.398;2022-09-09T13:36:29;23.50;99.90
8593;DHT22;4334;49.982;8.398;2022-09-09T13:38:59;23.00;99.90
8593;DHT22;4334;49.982;8.398;2022-09-09T13:41:30;22.50;99.90
8593;DHT22;4334;49.982;8.398;2022-09-09T13:43:59;21.80;99.90
8593;DHT22;4334;49.982;8.398;2022-09-09T13:51:35;20.70;99.90
8593;DHT22;4334;49.982;8.398;2022-09-09T13:58:59;20.40;99.90
8593;DHT22;4334;49.982;8.398;2022-09-09T14:01:26;20.30;99.90
8593;DHT22;4334;49.982;8.398;2022-09-09T14:06:21;20.50;99.90
8593;DHT22;4334;49.982;8.398;2022-09-09T14:08:49;20.60;99.90
8593;DHT22;4334;49.982;8.398;2022-09-09T14:11:17;20.70;99.90
8593;DHT22;4334;49.982;8.398;2022-09-09T14:13:44;20.70;99.90
8593;DHT22;4334;49.982;8.398;2022-09-09T14:16:12;20.70;99.90
8593;DHT22;4334;49.982;8.398;2022-09-09T14:18:39;20.70;99.90
8593;DHT22;4334;49.982;8.398;2022-09-09T14:21:06;20.50;99.90
8593;DHT22;4334;49.982;8.398;2022-09-09T14:23:35;20.60;99.90
8593;DHT22;4334;49.982;8.398;2022-09-09T14:26:03;20.70;99.90
8593;DHT22;4334;49.982;8.398;2022-09-09T14:28:32;20.70;99.90
8593;DHT22;4334;49.982;8.398;2022-09-09T14:30:59;20.70;99.90
8593;DHT22;4334;49.982;8.398;2022-09-09T14:33:26;20.70;99.90
8593;DHT22;4334;49.982;8.398;2022-09-09T14:35:56;20.70;99.90
8593;DHT22;4334;49.982;8.398;2022-09-09T14:43:16;20.40;99.90
8593;DHT22;4334;49.982;8.398;2022-09-09T14:45:44;20.30;99.90
8593;DHT22;4334;49.982;8.398;2022-09-09T14:48:11;20.30;99.90
8593;DHT22;4334;49.982;8.398;2022-09-09T14:53:06;20.20;99.90
8593;DHT22;4334;49.982;8.398;2022-09-09T14:58:01;20.00;99.90
8593;DHT22;4334;49.982;8.398;2022-09-09T15:00:28;20.10;99.90
8593;DHT22;4334;49.982;8.398;2022-09-09T15:05:23;20.40;99.90
8593;DHT22;4334;49.982;8.398;2022-09-09T15:07:50;20.30;99.90
8593;DHT22;4334;49.982;8.398;2022-09-09T15:10:17;20.00;99.90
8593;DHT22;4334;49.982;8.398;2022-09-09T15:12:44;20.10;99.90
8593;DHT22;4334;49.982;8.398;2022-09-09T15:15:11;20.50;99.90
8593;DHT22;4334;49.982;8.398;2022-09-09T15:17:38;20.90;99.90
8593;DHT22;4334;49.982;8.398;2022-09-09T15:20:07;21.20;99.90
8593;DHT22;4334;49.982;8.398;2022-09-09T15:22:34;21.50;99.90
8593;DHT22;4334;49.982;8.398;2022-09-09T15:25:04;21.60;99.90
8593;DHT22;4334;49.982;8.398;2022-09-09T15:27:31;21.90;99.90
8593;DHT22;4334;49.982;8.398;2022-09-09T15:32:26;22.60;99.90
8593;DHT22;4334;49.982;8.398;2022-09-09T15:34:52;22.10;99.90
8593;DHT22;4334;49.982;8.398;2022-09-09T15:37:20;21.60;99.90
8593;DHT22;4334;49.982;8.398;2022-09-09T15:39:47;21.20;99.90
8593;DHT22;4334;49.982;8.398;2022-09-09T15:44:41;20.70;99.90
8593;DHT22;4334;49.982;8.398;2022-09-09T15:47:10;20.50;99.90
8593;DHT22;4334;49.982;8.398;2022-09-09T15:49:38;20.20;99.90
8593;DHT22;4334;49.982;8.398;2022-09-09T15:54:35;19.90;99.90
8593;DHT22;4334;49.982;8.398;2022-09-09T15:57:05;19.80;99.90
8593;DHT22;4334;49.982;8.398;2022-09-09T15:59:33;19.80;99.90
8593;DHT22;4334;49.982;8.398;2022-09-09T16:02:00;19.70;99.90
8593;DHT22;4334;49.982;8.398;2022-09-09T16:04:28;19.70;99.90
8593;DHT22;4334;49.982;8.398;2022-09-09T16:06:56;19.70;99.90
8593;DHT22;4334;49.982;8.398;2022-09-09T16:11:54;19.70;99.90
8593;DHT22;4334;49.982;8.398;2022-09-09T16:14:21;19.70;99.90
8593;DHT22;4334;49.982;8.398;2022-09-09T16:19:15;19.60;99.90
8593;DHT22;4334;49.982;8.398;2022-09-09T16:31:35;19.50;99.90
8593;DHT22;4334;49.982;8.398;2022-09-09T16:34:02;19.50;99.90
8593;DHT22;4334;49.982;8.398;2022-09-09T16:36:31;19.40;99.90
8593;DHT22;4334;49.982;8.398;2022-09-09T16:39:00;19.40;99.90
8593;DHT22;4334;49.982;8.398;2022-09-09T16:41:28;19.30;99.90
8593;DHT22;4334;49.982;8.398;2022-09-09T16:43:57;19.30;99.90
8593;DHT22;4334;49.982;8.398;2022-09-09T16:46:26;19.20;99.90
8593;DHT22;4334;49.982;8.398;2022-09-09T16:48:56;19.10;99.90
8593;DHT22;4334;49.982;8.398;2022-09-09T16:53:52;19.00;99.90
8593;DHT22;4334;49.982;8.398;2022-09-09T17:04:00;18.90;99.90
8593;DHT22;4334;49.982;8.398;2022-09-09T17:06:28;18.80;99.90
8593;DHT22;4334;49.982;8.398;2022-09-09T17:08:56;18.80;99.90
8593;DHT22;4334;49.982;8.398;2022-09-09T17:11:24;18.70;99.90
8593;DHT22;4334;49.982;8.398;2022-09-09T17:13:51;18.70;99.90
8593;DHT22;4334;49.982;8.398;2022-09-09T17:18:49;18.40;99.90
8593;DHT22;4334;49.982;8.398;2022-09-09T17:21:18;17.90;99.90
8593;DHT22;4334;49.982;8.398;2022-09-09T17:23:45;17.40;99.90
8593;DHT22;4334;49.982;8.398;2022-09-09T17:26:14;17.20;99.90
8593;DHT22;4334;49.982;8.398;2022-09-09T17:28:42;17.00;99.90
8593;DHT22;4334;49.982;8.398;2022-09-09T17:31:10;16.80;99.90
8593;DHT22;4334;49.982;8.398;2022-09-09T17:33:39;16.70;99.90
8593;DHT22;4334;49.982;8.398;2022-09-09T17:36:10;16.60;99.90
8593;DHT22;4334;49.982;8.398;2022-09-09T17:38:37;16.60;99.90
8593;DHT22;4334;49.982;8.398;2022-09-09T17:41:07;16.50;99.90
8593;DHT22;4334;49.982;8.398;2022-09-09T17:43:34;16.50;99.90
8593;DHT22;4334;49.982;8.398;2022-09-09T17:46:06;16.40;99.90
8593;DHT22;4334;49.982;8.398;2022-09-09T17:51:00;16.40;99.90
8593;DHT22;4334;49.982;8.398;2022-09-09T17:53:28;16.40;99.90
8593;DHT22;4334;49.982;8.398;2022-09-09T17:56:01;16.40;99.90
8593;DHT22;4334;49.982;8.398;2022-09-09T17:58:28;16.40;99.90
8593;DHT22;4334;49.982;8.398;2022-09-09T18:00:55;16.40;99.90
8593;DHT22;4334;49.982;8.398;2022-09-09T18:03:22;16.40;99.90
8593;DHT22;4334;49.982;8.398;2022-09-09T18:08:15;16.40;99.90
8593;DHT22;4334;49.982;8.398;2022-09-09T18:10:55;16.20;99.90
8593;DHT22;4334;49.982;8.398;2022-09-09T18:13:22;16.10;99.90
8593;DHT22;4334;49.982;8.398;2022-09-09T18:18:15;15.90;99.90
8593;DHT22;4334;49.982;8.398;2022-09-09T18:23:13;15.80;99.90
8593;DHT22;4334;49.982;8.398;2022-09-09T18:25:43;15.80;99.90
8593;DHT22;4334;49.982;8.398;2022-09-09T18:30:40;15.70;99.90
8593;DHT22;4334;49.982;8.398;2022-09-09T18:40:35;15.60;99.90
8593;DHT22;4334;49.982;8.398;2022-09-09T18:45:35;15.60;99.90
8593;DHT22;4334;49.982;8.398;2022-09-09T18:48:06;15.50;99.90
8593;DHT22;4334;49.982;8.398;2022-09-09T18:50:36;15.40;99.90
8593;DHT22;4334;49.982;8.398;2022-09-09T18:53:02;15.40;99.90
8593;DHT22;4334;49.982;8.398;2022-09-09T18:55:29;15.40;99.90
8593;DHT22;4334;49.982;8.398;2022-09-09T18:57:59;15.30;99.90
8593;DHT22;4334;49.982;8.398;2022-09-09T19:05:24;15.20;99.90
8593;DHT22;4334;49.982;8.398;2022-09-09T19:07:51;15.10;99.90
8593;DHT22;4334;49.982;8.398;2022-09-09T19:12:48;15.10;99.90
8593;DHT22;4334;49.982;8.398;2022-09-09T19:17:45;15.10;99.90
8593;DHT22;4334;49.982;8.398;2022-09-09T19:30:11;14.90;99.90
8593;DHT22;4334;49.982;8.398;2022-09-09T19:35:06;14.90;99.90
8593;DHT22;4334;49.982;8.398;2022-09-09T19:59:44;14.80;99.90
8593;DHT22;4334;49.982;8.398;2022-09-09T20:14:34;14.70;99.90
8593;DHT22;4334;49.982;8.398;2022-09-09T20:17:01;14.60;99.90
8593;DHT22;4334;49.982;8.398;2022-09-09T20:19:33;14.70;99.90
8593;DHT22;4334;49.982;8.398;2022-09-09T20:32:01;14.50;99.90
8593;DHT22;4334;49.982;8.398;2022-09-09T20:34:27;14.50;99.90
8593;DHT22;4334;49.982;8.398;2022-09-09T20:36:54;14.40;99.90
8593;DHT22;4334;49.982;8.398;2022-09-09T20:41:50;14.40;99.90
8593;DHT22;4334;49.982;8.398;2022-09-09T20:44:19;14.30;99.90